Steen, Minnesota
Current Conditions -  °F | °C
As of 3:35 AM on Sunday 26 Oct 2014 (Local Time) from KLYV Reporting Station
Clear Clear  
Wind Chill: 43°   Ceiling: Unl
Heat Index: 43°   Visibility: 10mi
Dew Point: 32°   Wind: 0mph
Humidity: 66%   Direction: NA
Pressure: 29.99"   Gusts: NA
Location:  43.51°N, 96.26°W
Report Text: KLYV 260835Z AUTO 00000KT 10SM CLR 06/00 A2999 RMK AO2
Loading
Personal Weather Stations






























Interactive Weather Map
Tropical Storm Tracking
New forecast layout! Learn more

10-Day Weather Forecast

Advertisements
Track Severe Weather on mobile